Thunder radar more information blitzortung!


Radar de pluja more information rain snow radar


Visita la nostra xarxa de llocs de meteo:

Template documentation
and downloads

And another site



No particular awareness of the weather is required.    There are no Weather-warnings

Pagina Historial Weather Underground text

Diari Resum Juliol 20, 2017 Unitats:  Mètric    Imperial   Tant
« Previous Dia
SegĂźent Dia »
Diari Setmana Mensual Anual Personalitzada
  Maxima: Minima: Media:
Temperatura: 30.0 °C 21.5 °C 26.2 °C
Punt de rosada: 19.3 °C 15.1 °C 16.7 °C
Humitat: 77 % 44 % 56 %
Wind Speed: 20.4 km/h 0.0 km/h 8.5 km/h
RĂ fegues de vent: 20.9 km/h - -
Vent:- - ESE
Pression baro: 1011.7 hPa 1008.0 hPa -
Precipitacions: 0.0 mm    
Historical Graphs
 
 
Dades de taula per Juliol 20, 2017
Temps Temperatura Punt de rosada Pression baro Vent Wind Speed RĂ fegues de vent Humitat Rainfall Rate (Hourly)
00:00 23.6 °C 19.3 °C 1010.0 hPa NE 4.8 km/h 9.7 km/h 77 % 0.0 mm
00:05 23.5 °C 19.2 °C 1010.0 hPa NE 4.8 km/h 11.3 km/h 77 % 0.0 mm
00:15 22.5 °C 17.8 °C 1009.0 hPa NE 3.2 km/h 3.2 km/h 75 % 0.0 mm
00:25 22.5 °C 17.8 °C 1010.0 hPa NE 4.8 km/h 6.4 km/h 75 % 0.0 mm
00:35 22.5 °C 18.1 °C 1010.0 hPa ENE 8.0 km/h 9.7 km/h 76 % 0.0 mm
00:45 22.5 °C 18.1 °C 1010.0 hPa ENE 4.8 km/h 6.4 km/h 76 % 0.0 mm
00:55 22.5 °C 17.8 °C 1009.0 hPa NE 4.8 km/h 9.7 km/h 75 % 0.0 mm
01:05 22.5 °C 17.8 °C 1009.0 hPa NE 4.8 km/h 8.0 km/h 75 % 0.0 mm
01:15 22.5 °C 17.8 °C 1010.0 hPa NE 4.8 km/h 6.4 km/h 75 % 0.0 mm
01:25 22.5 °C 17.8 °C 1010.0 hPa East 3.2 km/h 6.4 km/h 75 % 0.0 mm
01:35 22.5 °C 17.8 °C 1010.0 hPa ENE 3.2 km/h 4.8 km/h 75 % 0.0 mm
01:45 22.4 °C 17.7 °C 1010.0 hPa NE 3.2 km/h 4.8 km/h 75 % 0.0 mm
01:55 22.5 °C 18.1 °C 1010.0 hPa NE 3.2 km/h 8.0 km/h 76 % 0.0 mm
02:05 22.5 °C 17.8 °C 1010.0 hPa NE 4.8 km/h 6.4 km/h 75 % 0.0 mm
02:15 21.9 °C 17.1 °C 1010.0 hPa NNE 4.8 km/h 4.8 km/h 74 % 0.0 mm
02:25 21.8 °C 16.7 °C 1010.0 hPa Calm   6.4 km/h 73 % 0.0 mm
02:35 22.0 °C 16.5 °C 1010.0 hPa NNE 3.2 km/h 3.2 km/h 71 % 0.0 mm
02:45 21.9 °C 16.6 °C 1010.0 hPa NE 4.8 km/h 4.8 km/h 72 % 0.0 mm
02:55 22.2 °C 16.7 °C 1010.0 hPa NE 3.2 km/h 6.4 km/h 71 % 0.0 mm
03:05 22.7 °C 16.9 °C 1010.0 hPa NE 4.8 km/h 6.4 km/h 70 % 0.0 mm
03:15 22.8 °C 16.8 °C 1010.7 hPa NNE 4.8 km/h 8.0 km/h 69 % 0.0 mm
03:25 23.5 °C 17.5 °C 1010.0 hPa NE 1.6 km/h 4.8 km/h 69 % 0.0 mm
03:35 23.7 °C 17.4 °C 1010.0 hPa NE 3.2 km/h 4.8 km/h 68 % 0.0 mm
03:45 24.1 °C 17.3 °C 1010.7 hPa NNE 1.6 km/h 3.2 km/h 66 % 0.0 mm
03:55 24.1 °C 17.1 °C 1010.7 hPa NE 3.2 km/h 4.8 km/h 65 % 0.0 mm
04:05 24.6 °C 17.6 °C 1010.7 hPa ENE 3.2 km/h 3.2 km/h 65 % 0.0 mm
04:15 25.6 °C 18.1 °C 1010.7 hPa SE 1.6 km/h 4.8 km/h 63 % 0.0 mm
04:25 25.9 °C 18.1 °C 1011.7 hPa ESE 3.2 km/h 4.8 km/h 62 % 0.0 mm
04:35 25.8 °C 17.9 °C 1011.7 hPa South 4.8 km/h 4.8 km/h 62 % 0.0 mm
04:45 26.1 °C 18.0 °C 1010.7 hPa SSW 3.2 km/h 4.8 km/h 61 % 0.0 mm
04:55 26.2 °C 17.8 °C 1011.7 hPa South 1.6 km/h 4.8 km/h 60 % 0.0 mm
05:05 26.6 °C 18.2 °C 1011.7 hPa SE 4.8 km/h 6.4 km/h 60 % 0.0 mm
05:15 26.5 °C 17.6 °C 1010.7 hPa ESE 4.8 km/h 8.0 km/h 58 % 0.0 mm
05:25 27.1 °C 17.8 °C 1011.7 hPa ESE 4.8 km/h 9.7 km/h 57 % 0.0 mm
05:35 27.0 °C 17.2 °C 1011.7 hPa East 3.2 km/h 6.4 km/h 55 % 0.0 mm
05:40 27.1 °C 17.3 °C 1010.7 hPa East 1.6 km/h 6.4 km/h 55 % 0.0 mm
10:40 27.1 °C 17.0 °C 1010.7 hPa ESE 3.5 km/h 5.3 km/h 54 % 0.0 mm
10:45 27.4 °C 17.0 °C 1010.7 hPa SSE 3.7 km/h 4.2 km/h 53 % 0.0 mm
10:50 28.0 °C 17.8 °C 1010.7 hPa ENE 3.7 km/h 3.7 km/h 54 % 0.0 mm
10:56 27.7 °C 16.9 °C 1010.7 hPa West 9.3 km/h 9.3 km/h 52 % 0.0 mm
11:01 27.7 °C 17.3 °C 1010.7 hPa NE 7.4 km/h 7.4 km/h 53 % 0.0 mm
11:06 28.0 °C 17.5 °C 1010.7 hPa SE 4.2 km/h 4.2 km/h 53 % 0.0 mm
11:11 28.0 °C 17.5 °C 1010.7 hPa NNE 6.1 km/h 6.1 km/h 53 % 0.0 mm
11:16 28.3 °C 17.5 °C 1010.7 hPa East 5.6 km/h 5.6 km/h 52 % 0.0 mm
11:21 28.3 °C 17.5 °C 1010.7 hPa ESE 12.6 km/h 12.6 km/h 52 % 0.0 mm
11:27 27.6 °C 16.8 °C 1010.7 hPa East 11.1 km/h 11.1 km/h 52 % 0.0 mm
11:32 27.8 °C 16.7 °C 1010.7 hPa SE 13.0 km/h 13.0 km/h 51 % 0.0 mm
11:37 27.7 °C 16.9 °C 1010.7 hPa NNE 7.4 km/h 7.4 km/h 52 % 0.0 mm
11:42 28.1 °C 17.0 °C 1010.7 hPa SE 7.4 km/h 7.4 km/h 51 % 0.0 mm
11:47 28.2 °C 17.1 °C 1010.7 hPa SSE 9.3 km/h 9.3 km/h 51 % 0.0 mm
11:52 28.0 °C 16.9 °C 1010.0 hPa ENE 5.6 km/h 5.6 km/h 51 % 0.0 mm
11:57 28.2 °C 17.4 °C 1010.0 hPa ENE 5.6 km/h 5.6 km/h 52 % 0.0 mm
12:02 28.7 °C 17.6 °C 1010.0 hPa WSW 5.6 km/h 5.6 km/h 51 % 0.0 mm
12:07 29.0 °C 17.5 °C 1010.0 hPa ESE 5.6 km/h 5.6 km/h 50 % 0.0 mm
12:12 28.9 °C 17.7 °C 1010.0 hPa NNE 5.6 km/h 5.6 km/h 51 % 0.0 mm
12:17 29.2 °C 17.4 °C 1010.0 hPa ESE 12.6 km/h 12.6 km/h 49 % 0.0 mm
12:22 28.4 °C 17.3 °C 1010.0 hPa East 9.3 km/h 9.3 km/h 51 % 0.0 mm
12:27 28.6 °C 17.4 °C 1010.0 hPa ESE 16.1 km/h 16.1 km/h 51 % 0.0 mm
12:33 29.3 °C 17.8 °C 1010.0 hPa ESE 7.4 km/h 7.4 km/h 50 % 0.0 mm
12:38 28.8 °C 17.7 °C 1010.0 hPa East 5.6 km/h 7.6 km/h 51 % 0.0 mm
12:43 28.7 °C 17.6 °C 1010.0 hPa ESE 9.3 km/h 9.3 km/h 51 % 0.0 mm
12:48 29.1 °C 17.6 °C 1010.0 hPa South 9.3 km/h 9.3 km/h 50 % 0.0 mm
12:53 29.2 °C 18.0 °C 1010.0 hPa South 13.0 km/h 13.0 km/h 51 % 0.0 mm
12:58 28.8 °C 17.7 °C 1010.0 hPa ESE 14.8 km/h 14.8 km/h 51 % 0.0 mm
13:04 28.4 °C 17.3 °C 1010.0 hPa ESE 13.0 km/h 13.0 km/h 51 % 0.0 mm
13:09 28.8 °C 17.7 °C 1010.0 hPa ESE 13.7 km/h 13.7 km/h 51 % 0.0 mm
13:14 29.0 °C 17.5 °C 1010.0 hPa ESE 7.4 km/h 7.4 km/h 50 % 0.0 mm
13:19 28.4 °C 17.3 °C 1010.0 hPa South 14.8 km/h 14.8 km/h 51 % 0.0 mm
13:24 28.9 °C 17.7 °C 1010.0 hPa ESE 14.0 km/h 14.0 km/h 51 % 0.0 mm
13:29 28.2 °C 17.1 °C 1010.0 hPa SE 14.8 km/h 14.8 km/h 51 % 0.0 mm
13:34 28.1 °C 17.3 °C 1010.0 hPa North 9.3 km/h 9.3 km/h 52 % 0.0 mm
13:40 28.5 °C 17.7 °C 1010.0 hPa SSE 5.6 km/h 5.6 km/h 52 % 0.0 mm
13:45 28.5 °C 17.7 °C 1010.0 hPa ESE 14.8 km/h 14.8 km/h 52 % 0.0 mm
13:50 28.4 °C 17.6 °C 1010.0 hPa ESE 13.0 km/h 13.0 km/h 52 % 0.0 mm
13:55 28.8 °C 17.9 °C 1010.0 hPa ESE 13.0 km/h 13.0 km/h 52 % 0.0 mm
14:00 29.4 °C 17.9 °C 1010.0 hPa ESE 9.3 km/h 9.3 km/h 50 % 0.0 mm
14:05 29.6 °C 18.1 °C 1010.0 hPa East 14.0 km/h 14.0 km/h 50 % 0.0 mm
14:10 29.1 °C 17.6 °C 1010.0 hPa ESE 11.1 km/h 11.1 km/h 50 % 0.0 mm
14:15 29.4 °C 17.9 °C 1010.0 hPa SE 7.4 km/h 7.4 km/h 50 % 0.0 mm
14:20 29.4 °C 17.9 °C 1010.0 hPa ESE 20.4 km/h 20.4 km/h 50 % 0.0 mm
14:25 29.3 °C 17.8 °C 1010.0 hPa East 9.7 km/h 16.1 km/h 50 % 0.0 mm
14:30 29.1 °C 17.9 °C 1010.0 hPa East 8.0 km/h 20.9 km/h 51 % 0.0 mm
14:35 29.1 °C 17.6 °C 1010.0 hPa ESE 12.9 km/h 20.9 km/h 50 % 0.0 mm
14:40 28.7 °C 17.9 °C 1010.0 hPa SE 18.5 km/h 18.5 km/h 52 % 0.0 mm
14:46 29.0 °C 17.8 °C 1010.0 hPa ESE 16.7 km/h 16.7 km/h 51 % 0.0 mm
14:51 29.1 °C 17.9 °C 1010.0 hPa East 13.0 km/h 13.0 km/h 51 % 0.0 mm
14:56 29.0 °C 17.8 °C 1010.0 hPa ENE 13.0 km/h 13.0 km/h 51 % 0.0 mm
15:02 29.0 °C 17.8 °C 1010.0 hPa SSW 9.3 km/h 9.3 km/h 51 % 0.0 mm
15:07 29.5 °C 18.0 °C 1009.0 hPa ENE 7.4 km/h 7.4 km/h 50 % 0.0 mm
15:12 30.0 °C 18.4 °C 1009.0 hPa ESE 16.9 km/h 16.9 km/h 50 % 0.0 mm
15:17 29.3 °C 17.8 °C 1009.0 hPa ESE 18.5 km/h 18.5 km/h 50 % 0.0 mm
15:18 29.3 °C 17.8 °C 1009.0 hPa East 18.5 km/h 18.5 km/h 50 % 0.0 mm
15:23 29.3 °C 17.8 °C 1010.0 hPa East 18.5 km/h 18.5 km/h 50 % 0.0 mm
15:28 29.1 °C 17.3 °C 1010.0 hPa East 18.5 km/h 18.5 km/h 49 % 0.0 mm
15:33 28.8 °C 17.7 °C 1010.0 hPa ESE 20.1 km/h 20.1 km/h 51 % 0.0 mm
15:38 28.8 °C 17.3 °C 1010.0 hPa SE 11.1 km/h 11.1 km/h 50 % 0.0 mm
15:43 29.1 °C 17.3 °C 1010.0 hPa ESE 13.0 km/h 13.0 km/h 49 % 0.0 mm
15:48 29.0 °C 17.2 °C 1010.0 hPa East 17.5 km/h 17.5 km/h 49 % 0.0 mm
15:53 29.1 °C 17.3 °C 1009.0 hPa East 14.8 km/h 14.8 km/h 49 % 0.0 mm
15:58 29.0 °C 17.2 °C 1009.0 hPa ESE 20.4 km/h 20.4 km/h 49 % 0.0 mm
16:03 29.2 °C 17.1 °C 1009.0 hPa ENE 14.8 km/h 14.8 km/h 48 % 0.0 mm
16:09 29.0 °C 17.2 °C 1010.0 hPa ENE 18.5 km/h 18.5 km/h 49 % 0.0 mm
16:14 29.2 °C 17.1 °C 1010.0 hPa SE 18.5 km/h 18.5 km/h 48 % 0.0 mm
16:19 28.7 °C 16.9 °C 1010.0 hPa East 14.8 km/h 14.8 km/h 49 % 0.0 mm
16:24 29.3 °C 17.5 °C 1010.0 hPa ENE 15.8 km/h 15.8 km/h 49 % 0.0 mm
16:29 29.3 °C 17.2 °C 1010.0 hPa SE 11.1 km/h 11.1 km/h 48 % 0.0 mm
16:34 29.1 °C 16.9 °C 1010.0 hPa ENE 11.1 km/h 11.1 km/h 48 % 0.0 mm
16:39 29.0 °C 16.9 °C 1009.0 hPa ESE 15.8 km/h 15.8 km/h 48 % 0.0 mm
16:40 29.0 °C 16.9 °C 1009.0 hPa ESE 17.5 km/h 17.5 km/h 48 % 0.0 mm
16:45 29.1 °C 16.9 °C 1009.0 hPa ESE 11.1 km/h 11.1 km/h 48 % 0.0 mm
16:50 29.0 °C 16.9 °C 1009.0 hPa East 13.0 km/h 13.0 km/h 48 % 0.0 mm
16:55 28.9 °C 16.8 °C 1009.0 hPa ENE 16.7 km/h 16.7 km/h 48 % 0.0 mm
17:00 29.3 °C 16.8 °C 1009.0 hPa East 14.8 km/h 14.8 km/h 47 % 0.0 mm
17:05 29.5 °C 17.0 °C 1009.0 hPa ENE 14.8 km/h 14.8 km/h 47 % 0.0 mm
17:10 29.2 °C 16.4 °C 1008.0 hPa ESE 11.1 km/h 11.1 km/h 46 % 0.0 mm
17:15 29.0 °C 16.2 °C 1008.0 hPa ENE 13.0 km/h 13.0 km/h 46 % 0.0 mm
17:20 29.2 °C 16.4 °C 1008.0 hPa ENE 13.0 km/h 13.0 km/h 46 % 0.0 mm
17:25 29.4 °C 16.6 °C 1008.0 hPa East 16.7 km/h 16.7 km/h 46 % 0.0 mm
17:30 29.3 °C 16.1 °C 1008.0 hPa SSE 18.5 km/h 18.5 km/h 45 % 0.0 mm
17:35 29.1 °C 15.9 °C 1008.0 hPa NE 16.7 km/h 16.7 km/h 45 % 0.0 mm
17:40 28.9 °C 16.1 °C 1009.0 hPa ESE 11.1 km/h 11.1 km/h 46 % 0.0 mm
17:45 28.8 °C 15.7 °C 1009.0 hPa South 16.7 km/h 16.7 km/h 45 % 0.0 mm
17:51 29.1 °C 15.6 °C 1009.0 hPa SE 13.0 km/h 13.0 km/h 44 % 0.0 mm
17:56 28.7 °C 15.6 °C 1009.0 hPa ESE 11.1 km/h 11.1 km/h 45 % 0.0 mm
18:01 29.0 °C 15.5 °C 1009.0 hPa SE 9.3 km/h 9.3 km/h 44 % 0.0 mm
18:06 28.6 °C 15.2 °C 1008.0 hPa ESE 16.7 km/h 16.7 km/h 44 % 0.0 mm
18:11 28.7 °C 15.6 °C 1008.0 hPa ENE 11.1 km/h 11.1 km/h 45 % 0.0 mm
18:16 28.7 °C 15.2 °C 1008.0 hPa ESE 16.7 km/h 16.7 km/h 44 % 0.0 mm
18:21 28.5 °C 15.1 °C 1009.0 hPa ESE 11.1 km/h 11.1 km/h 44 % 0.0 mm
18:26 28.8 °C 15.7 °C 1009.0 hPa East 19.8 km/h 19.8 km/h 45 % 0.0 mm
18:31 28.5 °C 15.4 °C 1009.0 hPa SSE 9.7 km/h 9.7 km/h 45 % 0.0 mm
18:36 28.3 °C 15.2 °C 1008.0 hPa SSE 14.8 km/h 14.8 km/h 45 % 0.0 mm
18:42 28.4 °C 15.3 °C 1008.0 hPa ESE 9.3 km/h 9.3 km/h 45 % 0.0 mm
18:47 28.3 °C 15.2 °C 1008.0 hPa ESE 13.0 km/h 13.0 km/h 45 % 0.0 mm
18:52 28.1 °C 15.4 °C 1009.0 hPa SE 19.8 km/h 19.8 km/h 46 % 0.0 mm
18:57 28.1 °C 15.4 °C 1009.0 hPa South 7.4 km/h 7.4 km/h 46 % 0.0 mm
19:02 28.0 °C 15.3 °C 1009.0 hPa ENE 9.3 km/h 9.3 km/h 46 % 0.0 mm
19:07 27.6 °C 15.3 °C 1009.0 hPa South 7.4 km/h 7.4 km/h 47 % 0.0 mm
19:12 27.4 °C 15.4 °C 1009.0 hPa ESE 9.7 km/h 9.7 km/h 48 % 0.0 mm
19:15 23.2 °C 16.0 °C 1010.7 hPa ENE 1.6 km/h 3.2 km/h 64 % 0.0 mm
19:17 27.3 °C 15.3 °C 1009.0 hPa SSE 9.7 km/h 9.7 km/h 48 % 0.0 mm
19:22 27.1 °C 15.4 °C 1009.0 hPa East 9.3 km/h 9.3 km/h 49 % 0.0 mm
19:25 23.1 °C 15.9 °C 1010.7 hPa Calm   3.2 km/h 64 % 0.0 mm
19:27 26.9 °C 15.6 °C 1009.0 hPa SSE 13.0 km/h 13.0 km/h 50 % 0.0 mm
19:32 26.7 °C 15.4 °C 1009.0 hPa ESE 16.9 km/h 16.9 km/h 50 % 0.0 mm
19:35 23.1 °C 15.9 °C 1010.7 hPa Calm   3.2 km/h 64 % 0.0 mm
19:37 26.6 °C 15.6 °C 1009.0 hPa ESE 9.3 km/h 9.3 km/h 51 % 0.0 mm
19:42 26.3 °C 15.3 °C 1009.0 hPa SSW 11.1 km/h 11.1 km/h 51 % 0.0 mm
19:45 23.0 °C 15.8 °C 1010.0 hPa Calm   1.6 km/h 64 % 0.0 mm
19:48 26.5 °C 15.8 °C 1009.0 hPa East 9.3 km/h 9.3 km/h 52 % 0.0 mm
19:53 26.4 °C 15.8 °C 1009.0 hPa East 9.3 km/h 9.3 km/h 52 % 0.0 mm
19:55 22.9 °C 15.9 °C 1010.0 hPa Calm     65 % 0.0 mm
19:56 26.4 °C 15.8 °C 1009.0 hPa South 7.4 km/h 7.4 km/h 52 % 0.0 mm
20:01 26.2 °C 15.9 °C 1009.0 hPa SE 16.7 km/h 16.7 km/h 53 % 0.0 mm
20:05 22.8 °C 15.9 °C 1010.0 hPa Calm   1.6 km/h 65 % 0.0 mm
20:06 25.9 °C 15.6 °C 1009.0 hPa SSE 9.5 km/h 9.5 km/h 53 % 0.0 mm
20:11 25.7 °C 15.4 °C 1009.0 hPa SSE 9.3 km/h 9.3 km/h 53 % 0.0 mm
20:15 22.8 °C 16.1 °C 1010.0 hPa Calm   1.6 km/h 66 % 0.0 mm
20:16 25.6 °C 15.6 °C 1009.0 hPa ESE 9.3 km/h 9.3 km/h 54 % 0.0 mm
20:21 25.5 °C 15.5 °C 1010.0 hPa SE 9.3 km/h 9.3 km/h 54 % 0.0 mm
20:25 22.8 °C 16.1 °C 1010.0 hPa North 1.6 km/h 1.6 km/h 66 % 0.0 mm
20:26 25.3 °C 15.3 °C 1010.0 hPa South 16.7 km/h 16.7 km/h 54 % 0.0 mm
20:32 25.3 °C 15.6 °C 1010.0 hPa SE 7.4 km/h 7.4 km/h 55 % 0.0 mm
20:35 22.8 °C 16.1 °C 1010.0 hPa Calm   1.6 km/h 66 % 0.0 mm
20:37 25.1 °C 15.7 °C 1010.0 hPa ESE 9.3 km/h 9.3 km/h 56 % 0.0 mm
20:43 25.0 °C 15.9 °C 1010.0 hPa East 11.1 km/h 11.1 km/h 57 % 0.0 mm
20:45 22.8 °C 16.1 °C 1010.0 hPa Calm   1.6 km/h 66 % 0.0 mm
20:48 25.0 °C 15.9 °C 1010.0 hPa SE 9.3 km/h 9.3 km/h 57 % 0.0 mm
20:53 24.8 °C 16.0 °C 1010.0 hPa ENE 11.1 km/h 11.1 km/h 58 % 0.0 mm
20:55 22.7 °C 16.0 °C 1010.0 hPa Calm     66 % 0.0 mm
20:58 24.9 °C 16.1 °C 1010.0 hPa ESE 11.9 km/h 11.9 km/h 58 % 0.0 mm
21:03 24.7 °C 15.9 °C 1010.0 hPa SE 13.0 km/h 13.0 km/h 58 % 0.0 mm
21:05 22.5 °C 15.8 °C 1010.0 hPa Calm     66 % 0.0 mm
21:08 24.6 °C 15.8 °C 1010.0 hPa ENE 14.8 km/h 14.8 km/h 58 % 0.0 mm
21:13 24.6 °C 15.8 °C 1010.0 hPa ENE 11.1 km/h 11.1 km/h 58 % 0.0 mm
21:15 22.4 °C 15.7 °C 1010.0 hPa Calm     66 % 0.0 mm
21:18 24.5 °C 15.9 °C 1010.0 hPa ENE 9.3 km/h 9.3 km/h 59 % 0.0 mm
21:23 24.4 °C 15.9 °C 1010.0 hPa ESE 12.2 km/h 12.2 km/h 59 % 0.0 mm
21:25 22.4 °C 15.7 °C 1010.0 hPa Calm     66 % 0.0 mm
21:28 24.2 °C 15.7 °C 1010.0 hPa SSE 11.1 km/h 11.1 km/h 59 % 0.0 mm
21:33 24.2 °C 15.7 °C 1010.0 hPa East 7.4 km/h 7.4 km/h 59 % 0.0 mm
21:35 22.2 °C 15.8 °C 1010.0 hPa Calm   1.6 km/h 67 % 0.0 mm
21:38 24.1 °C 15.6 °C 1010.0 hPa ENE 9.3 km/h 9.3 km/h 59 % 0.0 mm
21:43 24.2 °C 15.7 °C 1010.0 hPa South 7.4 km/h 7.4 km/h 59 % 0.0 mm
21:45 21.9 °C 15.7 °C 1010.0 hPa SW 1.6 km/h 3.2 km/h 68 % 0.0 mm
21:48 24.1 °C 15.6 °C 1010.0 hPa ESE 9.3 km/h 9.3 km/h 59 % 0.0 mm
21:53 24.0 °C 15.5 °C 1010.0 hPa ESE 9.3 km/h 9.5 km/h 59 % 0.0 mm
21:55 21.7 °C 15.6 °C 1010.0 hPa SW 1.6 km/h 3.2 km/h 68 % 0.0 mm
21:58 24.0 °C 15.5 °C 1010.0 hPa ESE 7.4 km/h 7.4 km/h 59 % 0.0 mm
22:03 24.0 °C 15.5 °C 1010.0 hPa ESE 5.6 km/h 5.6 km/h 59 % 0.0 mm
22:05 21.5 °C 15.6 °C 1010.0 hPa WSW 1.6 km/h 3.2 km/h 69 % 0.0 mm
22:08 24.0 °C 15.5 °C 1010.0 hPa ESE 3.7 km/h 3.7 km/h 59 % 0.0 mm
22:14 23.9 °C 15.7 °C 1010.0 hPa SE 9.3 km/h 9.3 km/h 60 % 0.0 mm
22:15 21.5 °C 15.6 °C 1010.0 hPa Calm   3.2 km/h 69 % 0.0 mm
22:19 23.9 °C 15.7 °C 1010.0 hPa SE 5.6 km/h 5.6 km/h 60 % 0.0 mm
22:24 23.8 °C 15.6 °C 1010.0 hPa WSW 3.7 km/h 3.7 km/h 60 % 0.0 mm
22:25 21.5 °C 15.8 °C 1010.0 hPa West 1.6 km/h 1.6 km/h 70 % 0.0 mm
22:29 23.8 °C 15.6 °C 1010.0 hPa SE 5.6 km/h 5.6 km/h 60 % 0.0 mm
22:34 23.8 °C 15.8 °C 1010.0 hPa SE 3.7 km/h 3.7 km/h 61 % 0.0 mm
22:39 23.7 °C 15.7 °C 1010.7 hPa East 5.8 km/h 5.8 km/h 61 % 0.0 mm
22:44 23.7 °C 16.0 °C 1010.7 hPa ESE 5.6 km/h 5.6 km/h 62 % 0.0 mm
22:45 21.5 °C 15.8 °C 1010.0 hPa ENE 1.6 km/h   70 % 0.0 mm
22:49 23.7 °C 16.0 °C 1010.7 hPa SSW 3.7 km/h 3.7 km/h 62 % 0.0 mm
22:55 23.6 °C 15.9 °C 1010.7 hPa Calm   3.2 km/h 62 % 0.0 mm
23:00 23.6 °C 15.9 °C 1010.7 hPa SSE 1.6 km/h 4.8 km/h 62 % 0.0 mm
23:05 23.6 °C 15.9 °C 1010.7 hPa ENE 5.0 km/h   62 % 0.0 mm
23:10 23.6 °C 16.2 °C 1010.0 hPa ESE 5.6 km/h 5.6 km/h 63 % 0.0 mm
23:15 23.5 °C 16.1 °C 1010.0 hPa SSE 3.9 km/h 3.9 km/h 63 % 0.0 mm
23:20 23.5 °C 16.1 °C 1010.0 hPa SSW 3.7 km/h   63 % 0.0 mm
23:25 23.4 °C 15.7 °C 1010.0 hPa SW 3.7 km/h 3.7 km/h 62 % 0.0 mm
23:30 23.3 °C 15.8 °C 1010.0 hPa SW 3.7 km/h 3.7 km/h 63 % 0.0 mm
23:35 23.2 °C 15.8 °C 1010.0 hPa Calm   3.2 km/h 63 % 0.0 mm
23:40 23.2 °C 15.8 °C 1010.7 hPa WSW 3.7 km/h 3.7 km/h 63 % 0.0 mm
23:45 23.2 °C 15.8 °C 1010.7 hPa SE 2.6 km/h 2.6 km/h 63 % 0.0 mm
23:50 23.2 °C 15.8 °C 1010.7 hPa Calm   1.6 km/h 63 % 0.0 mm
23:55 23.2 °C 16.0 °C 1010.7 hPa ENE 3.5 km/h 3.5 km/h 64 % 0.0 mm
Meteo Sesrovires
Elogis d' Weather Underground - 3.75 mb

Guio original per  Jim McMurry - jmcmurry@mwt.net Adaptat per a la plantilla per  Wim van der Kuil - Leuven-Template.eu

Trobareu la nostra informacio del temps tambe a:

Weather Underground

AWEKAS